Latest Weather Observations for Tunnack

IDT60801

Issued at 11:35 pm EDT Monday 20 October 2014 (issued every 30 minutes, with the page automatically refreshed every 10 minutes)

About weather observations | Map of weather stations | Latest weather observations for TAS | Other Formats
Station Details ID: 094195 Name: TUNNACK FIRE STATION Lat: -42.45 Lon: 147.46 Height: 461.5 m
Data from the previous 72 hours. | See also: Recent months at Tunnack
Date/Time
EDT
Temp
°C
App
Temp
°C
Dew
Point
Rel
Hum
%
Delta-T
°C
Wind Press
QNH
hPa
Press
MSL
hPa
Rain
since 9 am
mm
Dir
 
Spd
km/h
Gust
km/h
Spd
kts
Gust
kts
20/11:30pm 4.1 1.2 2.6 90 0.6 NE 7 11 4 6 1034.1 1034.6 0.0
20/11:00pm 4.3 1.4 2.5 88 0.7 ENE 7 11 4 6 1034.5 1035.0 0.0
20/10:30pm 4.6 1.7 2.5 86 0.9 ENE 7 13 4 7 1034.7 1035.2 0.0
20/10:00pm 4.9 1.6 2.6 85 1.0 ENE 9 15 5 8 1034.8 1035.3 0.0
20/09:30pm 4.9 1.2 2.3 83 1.1 E 11 15 6 8 1034.7 1035.2 0.0
20/09:00pm 5.4 1.3 2.1 79 1.4 E 13 17 7 9 1034.4 1034.9 0.0
20/08:30pm 5.9 1.7 1.8 75 1.7 E 13 19 7 10 1034.0 1034.5 0.0
20/08:00pm 6.4 2.2 1.7 72 1.9 E 13 20 7 11 1033.5 1034.0 0.0
20/07:30pm 7.6 3.4 1.7 66 2.5 E 13 20 7 11 1033.2 1033.6 0.0
20/07:00pm 8.5 4.3 1.9 63 2.8 ENE 13 20 7 11 1032.7 1033.2 0.0
20/06:30pm 9.4 4.8 1.6 58 3.3 ENE 15 20 8 11 1032.4 1032.9 0.0
20/06:00pm 10.7 6.6 2.3 56 3.7 ENE 13 20 7 11 1032.3 1032.8 0.0
20/05:30pm 11.4 6.3 2.9 56 3.8 NNE 19 28 10 15 1032.0 1032.5 0.0
20/05:00pm 13.1 10.5 1.1 44 5.2 NW 4 17 2 9 1031.9 1032.4 0.0
20/04:30pm 12.1 8.6 -1.1 40 5.4 NW 7 15 4 8 1031.8 1032.3 0.0
20/04:00pm 12.6 9.3 0.4 43 5.2 NNW 7 9 4 5 1032.0 1032.5 0.0
20/03:30pm 12.5 9.4 1.2 46 4.9 NNW 7 11 4 6 1032.1 1032.6 0.0
20/03:00pm 11.7 8.3 -0.8 42 5.1 S 7 11 4 6 1032.3 1032.8 0.0
20/02:30pm 11.6 8.1 1.3 49 4.5 NNE 9 15 5 8 1032.4 1032.9 0.0
20/02:00pm 10.5 6.6 -1.2 44 4.7 SSW 9 13 5 7 1032.6 1033.1 0.0
20/01:30pm 10.9 7.0 0.9 50 4.3 W 11 17 6 9 1032.8 1033.3 0.0
20/01:00pm 10.8 7.3 1.4 52 4.0 WNW 9 17 5 9 1032.8 1033.3 0.0
20/12:30pm 10.1 6.1 0.7 52 4.0 SW 11 19 6 10 1033.1 1033.5 0.0
20/12:00pm 9.0 4.4 -1.4 48 4.1 S 13 20 7 11 1033.2 1033.6 0.0
20/11:30am 8.7 4.7 0.2 55 3.5 SW 11 20 6 11 1033.2 1033.6 0.0
20/11:00am 8.0 3.2 0.3 58 3.1 SSW 15 22 8 12 1033.3 1033.7 0.0
20/10:30am 7.8 3.4 0.3 59 3.1 S 13 24 7 13 1033.5 1034.0 0.0
20/10:00am 6.4 0.7 -0.8 60 2.8 SSW 19 28 10 15 1033.3 1033.7 0.0
20/09:30am 7.1 3.2 1.0 65 2.5 S 11 20 6 11 1032.7 1033.2 0.0
20/09:00am 6.0 1.4 -0.7 62 2.6 SSW 13 22 7 12 1032.2 1032.7 1.0
20/08:30am 5.0 1.3 -0.2 69 2.0 SSW 9 13 5 7 1031.9 1032.4 1.0
20/08:00am 2.3 -0.9 -0.6 81 1.1 NW 6 7 3 4 1031.8 1032.3 1.0
20/07:30am 0.6 -1.4 -0.1 95 0.3 CALM 0 0 0 0 1031.5 1031.9 1.0
20/07:00am -1.7 -5.1 -2.0 98 0.0 E 6 7 3 4 1031.2 1031.6 1.0
20/06:30am -2.5 -4.9 -2.8 98 0.0 CALM 0 7 0 4 1031.0 1031.4 1.0
20/06:00am -2.9 -6.7 -3.4 96 0.0 N 7 11 4 6 1030.4 1030.9 1.0
20/05:30am -2.1 -5.6 -3.1 93 0.2 ESE 6 9 3 5 1029.6 1030.0 1.0
20/05:00am -0.5 -3.6 -2.4 87 0.6 WSW 4 9 2 5 1029.6 1030.0 1.0
20/04:30am 0.3 -3.6 -1.8 86 0.8 NW 9 11 5 6 1029.2 1029.6 1.0
20/04:00am 0.8 -2.8 -2.4 79 1.2 W 7 9 4 5 1028.9 1029.3 1.0
20/03:30am 1.3 -2.7 -2.6 75 1.4 W 9 13 5 7 1028.2 1028.7 1.0
20/03:00am 2.0 -2.7 -2.1 74 1.5 WSW 13 17 7 9 1027.7 1028.1 1.0
20/02:30am 2.3 -3.1 -1.5 76 1.4 WSW 17 28 9 15 1027.5 1027.9 1.0
20/02:00am 2.0 -1.9 -1.4 78 1.2 SW 9 13 5 7 1027.2 1027.6 1.0
20/01:30am 2.5 -1.7 -0.9 78 1.3 SW 11 20 6 11 1026.9 1027.3 1.0
20/01:00am 2.4 -1.7 -0.4 82 1.0 SW 11 17 6 9 1026.8 1027.2 1.0
20/12:30am 2.4 -1.3 0.0 84 0.9 SSW 9 17 5 9 1026.5 1026.9 1.0
20/12:00am 2.6 -1.1 -0.2 82 1.1 WNW 9 13 5 7 1025.8 1026.2 1.0
 
Date/Time
EDT
Temp
°C
App
Temp
°C
Dew
Point
Rel
Hum
%
Delta-T
°C
Wind Press
QNH
hPa
Press
MSL
hPa
Rain
since 9 am
mm
Dir
 
Spd
km/h
Gust
km/h
Spd
kts
Gust
kts
19/11:30pm 2.8 -1.3 -0.1 81 1.1 W 11 17 6 9 1025.6 1026.0 1.0
19/11:00pm 3.4 -0.2 0.3 80 1.2 SW 9 15 5 8 1025.2 1025.6 1.0
19/10:30pm 3.9 -0.8 0.6 79 1.3 SW 15 24 8 13 1024.5 1024.9 1.0
19/10:00pm 3.9 -3.1 2.1 88 0.7 WSW 28 43 15 23 1023.7 1024.1 1.0
19/09:51pm 4.3 -2.5 3.3 93 0.4 WSW 28 44 15 24 1023.9 1024.2 0.8
19/09:30pm 5.1 0.3 4.5 96 0.3 SW 19 26 10 14 1023.1 1023.5 0.4
19/09:00pm 5.8 0.9 4.0 88 0.8 WSW 19 28 10 15 1022.4 1022.8 0.2
19/08:30pm 6.1 0.9 3.6 84 1.1 SW 20 30 11 16 1021.9 1022.2 0.2
19/08:00pm 6.4 1.5 4.1 85 1.0 SW 19 33 10 18 1021.0 1021.4 0.2
19/07:30pm 6.5 2.2 5.3 92 0.5 WSW 17 26 9 14 1020.1 1020.4 0.2
19/07:00pm 7.0 3.4 5.2 88 0.8 SW 13 17 7 9 1019.0 1019.4 0.0
19/06:30pm 7.0 3.0 5.0 87 0.9 WNW 15 20 8 11 1018.3 1018.6 0.0
19/06:00pm 7.3 4.0 4.8 84 1.1 W 11 17 6 9 1018.0 1018.3 0.0
19/05:30pm 7.3 3.3 4.8 84 1.1 WSW 15 22 8 12 1018.0 1018.3 0.0
19/05:00pm 7.5 1.5 5.1 85 1.1 SW 26 41 14 22 1017.7 1018.0 0.0
19/04:45pm 8.3 2.0 5.6 83 1.3 SW 28 46 15 25 1017.6 1017.9 0.0
19/04:30pm 10.3 3.0 5.5 72 2.3 SW 33 43 18 23 1016.7 1017.0 0.0
19/04:00pm 11.8 7.1 5.2 64 3.1 W 19 33 10 18 1015.7 1016.0 0.0
19/03:30pm 12.0 6.7 5.2 63 3.2 W 22 30 12 16 1015.9 1016.2 0.0
19/03:00pm 11.8 5.9 5.9 67 2.8 W 26 39 14 21 1016.2 1016.5 0.0
19/02:30pm 12.4 6.3 6.7 68 2.8 SW 28 43 15 23 1016.6 1016.9 0.0
19/02:00pm 15.5 9.7 6.2 54 4.6 WSW 26 39 14 21 1015.9 1016.2 0.0
19/01:30pm 15.9 8.7 5.8 51 5.0 WSW 33 52 18 28 1015.7 1016.0 0.0
19/01:26pm 16.1 9.4 5.4 49 5.2 WSW 30 52 16 28 1015.6 1015.9 0.0
19/01:00pm 16.3 9.7 5.9 50 5.2 WSW 30 44 16 24 1015.3 1015.6 0.0
19/12:30pm 14.9 8.8 6.5 57 4.2 WSW 28 39 15 21 1015.7 1016.0 0.0
19/12:00pm 16.6 11.7 6.7 52 5.0 W 22 43 12 23 1015.4 1015.7 0.0
19/11:30am 16.2 11.9 7.9 58 4.3 W 20 30 11 16 1015.5 1015.8 0.0
19/11:15am 15.8 9.6 6.3 53 4.7 W 28 50 15 27 1015.8 1016.1 0.0
19/11:00am 15.3 9.1 6.3 55 4.5 W 28 43 15 23 1015.9 1016.2 0.0
19/10:30am 14.9 8.7 6.2 56 4.3 WSW 28 50 15 27 1016.0 1016.3 0.0
19/10:00am 15.2 10.0 7.2 59 4.0 WNW 24 35 13 19 1016.0 1016.3 0.0
19/09:30am 15.8 11.4 7.6 58 4.2 W 20 28 11 15 1015.9 1016.2 0.0
19/09:00am 15.0 13.3 8.3 64 3.5 W 7 13 4 7 1015.4 1015.7 0.0
19/08:30am 13.1 10.6 8.0 71 2.6 NNW 11 17 6 9 1015.5 1015.8 0.0
19/08:00am 12.0 10.2 8.1 77 2.0 NE 7 11 4 6 1015.2 1015.5 0.0
19/07:30am 11.9 9.6 7.6 75 2.1 N 9 17 5 9 1014.9 1015.1 0.0
19/07:00am 10.1 6.2 7.3 83 1.4 NNW 17 20 9 11 1014.9 1015.1 0.0
19/06:30am 9.9 5.1 7.3 84 1.3 N 22 32 12 17 1014.1 1014.4 0.0
19/06:00am 9.9 5.6 7.2 83 1.3 N 19 28 10 15 1013.8 1014.1 0.0
19/05:30am 10.3 5.7 6.6 78 1.8 N 20 32 11 17 1013.6 1013.9 0.0
19/05:00am 10.6 5.2 6.4 75 2.0 N 24 35 13 19 1013.6 1013.9 0.0
19/04:30am 11.1 6.0 5.8 70 2.5 NNE 22 33 12 18 1014.0 1014.3 0.0
19/04:00am 11.2 7.7 5.5 68 2.7 NNE 13 22 7 12 1014.7 1014.9 0.0
19/03:30am 11.0 6.1 5.3 68 2.7 N 20 32 11 17 1014.8 1015.0 0.0
19/03:00am 11.2 5.2 5.5 68 2.7 N 26 35 14 19 1015.2 1015.5 0.0
19/02:30am 11.3 4.5 5.2 66 2.9 N 30 43 16 23 1015.4 1015.7 0.0
19/02:00am 10.9 5.3 5.2 68 2.7 N 24 32 13 17 1015.7 1016.0 0.0
19/01:30am 9.9 4.7 5.3 73 2.1 N 22 32 12 17 1016.2 1016.5 0.0
19/01:00am 9.5 4.0 5.9 78 1.7 N 24 33 13 18 1017.2 1017.5 0.0
19/12:30am 9.7 4.6 6.1 78 1.7 N 22 33 12 18 1017.3 1017.6 0.0
19/12:00am 9.5 2.5 6.0 79 1.7 N 32 43 17 23 1017.4 1017.7 0.0
 
Date/Time
EDT
Temp
°C
App
Temp
°C
Dew
Point
Rel
Hum
%
Delta-T
°C
Wind Press
QNH
hPa
Press
MSL
hPa
Rain
since 9 am
mm
Dir
 
Spd
km/h
Gust
km/h
Spd
kts
Gust
kts
18/11:30pm 9.5 3.3 6.0 79 1.7 N 28 39 15 21 1017.4 1017.7 0.0
18/11:00pm 9.2 4.2 6.3 82 1.4 N 22 39 12 21 1017.8 1018.1 0.0
18/10:30pm 9.2 2.7 6.6 84 1.2 N 30 44 16 24 1017.6 1017.9 0.0
18/10:18pm 9.2 3.1 6.6 84 1.2 N 28 50 15 27 1018.0 1018.3 0.0
18/10:00pm 9.4 4.1 6.7 83 1.3 NNW 24 37 13 20 1018.4 1018.7 0.0
18/09:30pm 9.6 2.7 6.5 81 1.5 N 32 43 17 23 1018.9 1019.3 0.0
18/09:09pm 9.7 2.6 6.2 79 1.7 N 33 52 18 28 1019.4 1019.7 0.0
18/09:00pm 9.8 1.9 6.2 78 1.7 N 37 52 20 28 1019.3 1019.6 0.0
18/08:30pm 9.9 4.5 6.2 78 1.8 NNE 24 43 13 23 1019.1 1019.5 0.0
18/08:00pm 9.8 4.1 6.5 80 1.6 N 26 35 14 19 1019.6 1019.9 0.0
18/07:30pm 10.2 4.0 6.2 76 1.9 N 28 43 15 23 1019.9 1020.2 0.0
18/07:00pm 10.7 4.9 6.1 73 2.2 N 26 39 14 21 1020.0 1020.3 0.0
18/06:30pm 11.6 4.5 5.5 66 2.9 N 32 43 17 23 1020.3 1020.6 0.0
18/06:00pm 12.2 5.5 5.6 64 3.1 N 30 50 16 27 1020.5 1020.8 0.0
18/05:31pm 12.3 4.3 5.7 64 3.2 N 37 56 20 30 1020.2 1020.5 0.0
18/05:30pm 12.4 4.8 5.8 64 3.2 N 35 52 19 28 1020.2 1020.5 0.0
18/05:00pm 12.6 6.4 6.2 65 3.1 N 28 44 15 24 1020.1 1020.4 0.0
18/04:30pm 12.9 5.7 5.8 62 3.4 N 33 46 18 25 1020.4 1020.7 0.0
18/04:00pm 14.1 6.7 6.7 61 3.7 N 35 50 19 27 1020.1 1020.4 0.0
18/03:30pm 13.3 6.4 6.6 64 3.3 N 32 43 17 23 1020.5 1020.8 0.0
18/03:00pm 13.6 7.7 7.4 66 3.1 N 28 41 15 22 1021.0 1021.4 0.0
18/02:45pm 13.1 6.7 6.9 66 3.1 N 30 48 16 26 1021.1 1021.5 0.0
18/02:30pm 13.6 5.9 6.9 64 3.3 N 37 46 20 25 1021.0 1021.4 0.0
18/02:00pm 12.9 5.1 6.5 65 3.1 N 37 48 20 26 1021.7 1022.0 0.0
18/01:36pm 13.1 5.7 6.7 65 3.2 N 35 54 19 29 1021.4 1021.8 0.0
18/01:30pm 12.9 4.7 6.5 65 3.1 N 39 54 21 29 1021.3 1021.7 0.0
18/01:00pm 13.1 5.9 6.0 62 3.4 N 33 54 18 29 1022.0 1022.3 0.0
18/12:30pm 14.4 8.0 7.0 61 3.7 N 30 48 16 26 1022.3 1022.6 0.0
18/12:00pm 13.5 6.1 6.6 63 3.4 N 35 52 19 28 1023.1 1023.5 0.0
18/11:54am 13.5 6.4 6.6 63 3.4 N 33 52 18 28 1023.2 1023.6 0.0
18/11:30am 13.2 5.7 6.5 64 3.3 N 35 44 19 24 1023.4 1023.8 0.0
18/11:00am 12.5 5.1 6.8 68 2.8 N 35 48 19 26 1023.5 1023.9 0.0
18/10:30am 12.3 5.7 7.6 73 2.3 N 32 43 17 23 1024.1 1024.4 0.0
18/10:05am 11.2 4.8 6.9 75 2.1 N 30 48 16 26 1024.3 1024.7 0.0
18/10:00am 11.4 4.6 6.9 74 2.2 N 32 48 17 26 1024.4 1024.8 0.0
18/09:43am 10.6 3.2 6.7 77 1.9 N 35 54 19 29 1024.5 1024.9 0.0
18/09:30am 10.3 2.1 6.6 78 1.8 N 39 56 21 30 1024.7 1025.1 0.0
18/09:27am 10.0 2.1 6.3 78 1.8 N 37 56 20 30 1024.7 1025.1 0.0
18/09:00am 9.1 1.9 7.7 91 0.7 N 35 48 19 26 1024.9 1025.3 0.0
18/08:51am 8.5 2.5 7.1 91 0.7 N 28 46 15 25 1024.9 1025.3 0.0
18/08:30am 8.0 2.5 7.6 97 0.2 N 26 35 14 19 1025.1 1025.5 0.0
18/08:00am 7.8 3.1 7.7 99 0.0 N 22 37 12 20 1025.4 1025.8 0.0
18/07:30am 7.0 2.5 6.9 99 0.0 N 20 30 11 16 1025.5 1025.9 0.0
18/07:00am 6.6 2.6 6.5 99 0.0 N 17 24 9 13 1025.6 1026.0 0.0
18/06:30am 6.5 3.2 6.4 99 0.0 N 13 20 7 11 1025.4 1025.8 0.0
18/06:00am 6.2 2.1 6.1 99 0.0 N 17 26 9 14 1024.8 1025.2 0.0
18/05:30am 5.8 1.2 5.7 99 0.0 N 19 24 10 13 1024.8 1025.2 0.0
18/05:00am 6.1 1.4 6.0 99 0.0 N 20 28 11 15 1025.0 1025.4 0.0
18/04:30am 5.6 1.4 5.5 99 0.0 N 17 24 9 13 1025.2 1025.6 0.0
18/04:00am 6.2 1.1 5.9 98 0.1 N 22 35 12 19 1025.5 1025.9 0.0
18/03:30am 6.5 2.7 5.9 96 0.3 N 15 24 8 13 1025.6 1026.0 0.0
18/03:00am 6.7 2.9 6.0 95 0.3 NNW 15 20 8 11 1025.7 1026.1 0.0
18/02:30am 6.8 2.3 6.1 95 0.3 N 19 30 10 16 1025.6 1026.0 0.0
18/02:00am 7.0 2.3 5.9 93 0.5 N 20 30 11 16 1025.8 1026.2 0.0
18/01:30am 7.1 3.3 5.6 90 0.7 NNE 15 22 8 12 1026.0 1026.4 0.0
18/01:00am 6.7 2.8 3.5 80 1.4 NE 13 20 7 11 1025.7 1026.1 0.0
18/12:30am 6.6 3.1 3.4 80 1.4 ENE 11 19 6 10 1026.2 1026.6 0.0
18/12:00am 6.5 2.9 3.1 79 1.5 ENE 11 19 6 10 1026.5 1026.9 0.0

Other Formats:

Comma delimited format used in spreadsheet applications
http://www.bom.gov.au/fwo/IDT60801/IDT60801.94960.axf

JavaScript Object Notation format (JSON) in row-major order
http://www.bom.gov.au/fwo/IDT60801/IDT60801.94960.json